createdAt,value
2018-08-19T00:02:19.961Z,19.50
2018-08-19T00:05:08.593Z,19.50
2018-08-19T00:07:37.863Z,19.60
2018-08-19T00:10:07.610Z,19.60
2018-08-19T00:12:39.929Z,19.60
2018-08-19T00:15:09.229Z,19.50
2018-08-19T00:17:38.497Z,19.60
2018-08-19T00:20:11.655Z,19.70
2018-08-19T00:22:40.980Z,19.60
2018-08-19T00:25:16.083Z,19.60
2018-08-19T00:27:45.352Z,19.60
2018-08-19T00:30:14.604Z,19.60
2018-08-19T00:32:43.837Z,19.50
2018-08-19T00:35:13.054Z,19.50
2018-08-19T00:37:42.315Z,19.50
2018-08-19T00:40:12.592Z,19.40
2018-08-19T00:42:44.454Z,19.30
2018-08-19T00:45:14.272Z,19.30
2018-08-19T00:47:43.497Z,19.20
2018-08-19T00:50:12.756Z,19.20
2018-08-19T00:52:42.309Z,19.20
2018-08-19T00:55:11.607Z,19.20
2018-08-19T00:57:43.217Z,19.30
2018-08-19T01:00:12.469Z,19.20
2018-08-19T01:02:41.718Z,19.10
2018-08-19T01:05:10.963Z,19.10
2018-08-19T01:07:40.231Z,19.00
2018-08-19T01:10:09.997Z,19.10
2018-08-19T01:12:39.273Z,19.10
2018-08-19T01:15:13.218Z,19.10
2018-08-19T01:17:43.407Z,19.10
2018-08-19T01:20:19.395Z,18.90
2018-08-19T01:22:48.702Z,18.70
2018-08-19T01:25:18.193Z,18.60
2018-08-19T01:27:47.457Z,18.60
2018-08-19T01:30:21.224Z,18.60
2018-08-19T01:32:50.499Z,18.60
2018-08-19T01:35:27.263Z,18.60
2018-08-19T01:37:56.524Z,18.60
2018-08-19T01:40:26.845Z,18.60
2018-08-19T01:42:56.092Z,18.60
2018-08-19T01:45:25.370Z,18.60
2018-08-19T01:47:54.627Z,18.60
2018-08-19T01:50:23.927Z,18.40
2018-08-19T01:52:53.172Z,18.50
2018-08-19T01:55:22.440Z,18.50
2018-08-19T01:57:51.997Z,18.50
2018-08-19T02:00:21.287Z,18.50
2018-08-19T02:03:02.295Z,18.40
2018-08-19T02:05:31.572Z,18.40
2018-08-19T02:08:02.210Z,18.40
2018-08-19T02:10:33.132Z,18.40
2018-08-19T02:13:02.784Z,18.40
2018-08-19T02:15:32.812Z,18.40
2018-08-19T02:18:03.358Z,18.20
2018-08-19T02:20:39.913Z,18.20
2018-08-19T02:23:10.880Z,18.10
2018-08-19T02:25:44.459Z,18.10
2018-08-19T02:28:14.320Z,18.10
2018-08-19T02:31:02.633Z,18.00
2018-08-19T02:33:35.646Z,18.00
2018-08-19T02:36:06.538Z,17.90
2018-08-19T02:38:36.768Z,17.90
2018-08-19T02:41:06.872Z,18.00
2018-08-19T02:43:44.347Z,17.90
2018-08-19T02:46:13.647Z,18.00
2018-08-19T02:48:47.705Z,17.90
2018-08-19T02:51:18.302Z,17.90
2018-08-19T02:53:48.714Z,17.90
2018-08-19T02:56:18.755Z,17.90
2018-08-19T02:58:48.564Z,17.90
2018-08-19T03:01:18.630Z,17.90
2018-08-19T03:03:48.816Z,17.90
2018-08-19T03:06:18.084Z,17.90
2018-08-19T03:09:02.942Z,17.90
2018-08-19T03:11:32.224Z,17.90
2018-08-19T03:14:01.489Z,17.90
2018-08-19T03:16:30.769Z,17.90
2018-08-19T03:19:00.043Z,17.90
2018-08-19T03:21:29.369Z,17.80
2018-08-19T03:23:58.614Z,17.90
2018-08-19T03:26:29.872Z,17.80
2018-08-19T03:29:04.263Z,17.70
2018-08-19T03:31:33.529Z,17.70
2018-08-19T03:34:02.790Z,17.60
2018-08-19T03:36:32.044Z,17.60
2018-08-19T03:39:16.389Z,17.60
2018-08-19T03:41:46.244Z,17.60
2018-08-19T03:44:15.504Z,17.50
2018-08-19T03:46:44.746Z,17.60
2018-08-19T03:49:13.964Z,17.60
2018-08-19T03:51:43.391Z,17.60
2018-08-19T03:54:12.624Z,17.50
2018-08-19T03:56:41.868Z,17.40
2018-08-19T03:59:13.081Z,17.50
2018-08-19T04:01:44.722Z,17.50
2018-08-19T04:04:16.778Z,17.50
2018-08-19T04:06:46.058Z,17.50
2018-08-19T04:09:15.292Z,17.40
2018-08-19T04:11:46.974Z,17.30
2018-08-19T04:14:28.472Z,17.30
2018-08-19T04:16:59.639Z,17.30
2018-08-19T04:19:29.470Z,17.20
2018-08-19T04:22:01.699Z,17.20
2018-08-19T04:24:31.561Z,17.20
2018-08-19T04:27:07.283Z,17.30
2018-08-19T04:29:37.050Z,17.40
2018-08-19T04:32:11.198Z,17.40
2018-08-19T04:34:41.407Z,17.20
2018-08-19T04:37:10.702Z,17.20
2018-08-19T04:39:40.015Z,17.30
2018-08-19T04:42:09.344Z,17.30
2018-08-19T04:44:38.574Z,17.30
2018-08-19T04:47:24.926Z,17.30
2018-08-19T04:49:54.208Z,17.40
2018-08-19T04:52:24.632Z,17.40
2018-08-19T04:54:55.088Z,17.50
2018-08-19T04:57:24.327Z,17.40
2018-08-19T04:59:53.736Z,17.30
2018-08-19T05:02:23.524Z,17.40
2018-08-19T05:04:52.705Z,17.40
2018-08-19T05:07:21.947Z,17.50
2018-08-19T05:09:51.195Z,17.50
2018-08-19T05:12:20.464Z,17.50
2018-08-19T05:14:49.697Z,17.50
2018-08-19T05:17:18.936Z,17.50
2018-08-19T05:19:48.201Z,17.60
2018-08-19T05:22:17.489Z,17.60
2018-08-19T05:24:46.825Z,17.60
2018-08-19T05:27:17.637Z,17.60
2018-08-19T05:29:46.852Z,17.70
2018-08-19T05:32:16.109Z,17.70
2018-08-19T05:34:46.226Z,17.80
2018-08-19T05:37:15.457Z,17.90
2018-08-19T05:39:49.954Z,18.00
2018-08-19T05:42:19.235Z,18.00
2018-08-19T05:44:48.530Z,18.00
2018-08-19T05:47:18.125Z,18.10
2018-08-19T05:49:48.343Z,18.10
2018-08-19T05:52:24.553Z,18.20
2018-08-19T05:54:56.990Z,18.20
2018-08-19T05:57:26.509Z,18.20
2018-08-19T05:59:56.393Z,18.20
2018-08-19T06:02:32.558Z,18.30
2018-08-19T06:05:03.149Z,18.30
2018-08-19T06:07:32.485Z,18.30
2018-08-19T06:10:01.834Z,18.10
2018-08-19T06:12:31.137Z,18.10
2018-08-19T06:15:01.637Z,18.20
2018-08-19T06:17:30.967Z,18.30
2018-08-19T06:20:00.227Z,18.40
2018-08-19T06:22:34.691Z,18.40
2018-08-19T06:25:04.008Z,18.50
2018-08-19T06:27:41.350Z,18.60
2018-08-19T06:30:10.643Z,18.70
2018-08-19T06:32:40.048Z,18.70
2018-08-19T06:35:09.610Z,18.80
2018-08-19T06:37:38.858Z,18.90
2018-08-19T06:40:10.773Z,19.10
2018-08-19T06:42:40.039Z,19.20
2018-08-19T06:45:10.336Z,19.20
2018-08-19T06:47:39.698Z,19.20
2018-08-19T06:50:26.329Z,19.30
2018-08-19T06:52:56.364Z,19.40
2018-08-19T06:55:26.383Z,19.50
2018-08-19T06:57:58.898Z,19.60
2018-08-19T07:00:30.124Z,19.80
2018-08-19T07:03:02.007Z,19.90
2018-08-19T07:05:31.799Z,20.10
2018-08-19T07:08:01.285Z,20.20
2018-08-19T07:10:35.626Z,20.40
2018-08-19T07:13:06.566Z,20.50
2018-08-19T07:15:37.252Z,20.60
2018-08-19T07:18:08.444Z,20.70
2018-08-19T07:20:38.540Z,20.80
2018-08-19T07:23:08.877Z,20.90
2018-08-19T07:25:41.399Z,21.10
2018-08-19T07:28:12.094Z,21.30
2018-08-19T07:30:41.812Z,21.40
2018-08-19T07:33:11.556Z,21.50
2018-08-19T07:35:41.058Z,21.60
2018-08-19T07:38:10.799Z,21.70
2018-08-19T07:40:40.025Z,21.80
2018-08-19T07:43:09.301Z,21.90
2018-08-19T07:45:38.529Z,22.00
2018-08-19T07:48:09.625Z,22.10
2018-08-19T07:50:39.024Z,22.20
2018-08-19T07:53:08.289Z,22.30
2018-08-19T07:55:37.593Z,22.50
2018-08-19T07:58:06.946Z,22.60
2018-08-19T08:00:39.111Z,22.70
2018-08-19T08:03:08.621Z,22.80
2018-08-19T08:05:43.036Z,23.00
2018-08-19T08:08:18.801Z,23.10
2018-08-19T08:10:48.103Z,23.20
2018-08-19T08:13:17.472Z,23.40
2018-08-19T08:15:52.090Z,23.50
2018-08-19T08:18:21.392Z,23.70
2018-08-19T08:20:52.382Z,23.80
2018-08-19T08:23:24.139Z,23.90
2018-08-19T08:25:53.391Z,24.00
2018-08-19T08:28:22.681Z,24.10
2018-08-19T08:30:51.886Z,24.20
2018-08-19T08:33:21.186Z,24.30
2018-08-19T08:35:56.414Z,24.40
2018-08-19T08:38:25.853Z,24.30
2018-08-19T08:40:55.668Z,24.30
2018-08-19T08:43:25.046Z,24.30
2018-08-19T08:45:57.253Z,24.30
2018-08-19T08:48:26.777Z,24.50
2018-08-19T08:50:56.221Z,24.70
2018-08-19T08:53:32.217Z,24.80
2018-08-19T08:56:01.517Z,24.80
2018-08-19T08:58:30.764Z,24.80
2018-08-19T09:01:00.614Z,24.80
2018-08-19T09:03:29.982Z,24.90
2018-08-19T09:05:59.329Z,24.90
2018-08-19T09:08:28.887Z,25.00
2018-08-19T09:10:59.889Z,25.00
2018-08-19T09:13:29.154Z,25.20
2018-08-19T09:15:58.400Z,25.40
2018-08-19T09:18:28.001Z,25.60
2018-08-19T09:20:57.258Z,25.90
2018-08-19T09:23:26.632Z,26.20
2018-08-19T09:25:55.938Z,26.40
2018-08-19T09:28:25.218Z,26.60
2018-08-19T09:30:54.533Z,26.80
2018-08-19T09:33:23.789Z,26.70
2018-08-19T09:35:53.028Z,26.70
2018-08-19T09:38:23.258Z,26.80
2018-08-19T09:40:52.857Z,26.90
2018-08-19T09:43:22.096Z,26.90
2018-08-19T09:45:51.772Z,27.00
2018-08-19T09:48:21.636Z,27.10
2018-08-19T09:50:50.929Z,27.30
2018-08-19T09:53:20.365Z,27.30
2018-08-19T09:55:56.045Z,27.40
2018-08-19T09:58:26.216Z,27.50
2018-08-19T10:01:01.120Z,27.70
2018-08-19T10:03:32.796Z,28.10
2018-08-19T10:06:02.156Z,28.30
2018-08-19T10:08:31.607Z,28.40
2018-08-19T10:11:01.134Z,28.70
2018-08-19T10:13:30.631Z,28.80
2018-08-19T10:16:00.373Z,28.70
2018-08-19T10:18:29.925Z,28.70
2018-08-19T10:21:04.811Z,28.70
2018-08-19T10:23:34.139Z,28.70
2018-08-19T10:26:03.876Z,28.90
2018-08-19T10:28:33.296Z,28.80
2018-08-19T10:31:03.093Z,29.00
2018-08-19T10:33:32.846Z,29.30
2018-08-19T10:36:02.666Z,29.30
2018-08-19T10:38:32.064Z,29.50
2018-08-19T10:41:06.028Z,29.80
2018-08-19T10:43:35.676Z,29.90
2018-08-19T10:46:05.285Z,29.80
2018-08-19T10:48:34.757Z,29.70
2018-08-19T10:51:04.458Z,29.80
2018-08-19T10:53:33.760Z,29.90
2018-08-19T10:56:04.121Z,29.90
2018-08-19T10:58:33.561Z,29.90
2018-08-19T11:01:03.406Z,29.80
2018-08-19T11:03:33.330Z,29.90
2018-08-19T11:06:03.149Z,30.20
2018-08-19T11:08:32.597Z,30.30
2018-08-19T11:11:01.865Z,30.10
2018-08-19T11:13:31.194Z,30.40
2018-08-19T11:16:00.452Z,30.60
2018-08-19T11:18:42.875Z,30.50
2018-08-19T11:21:15.460Z,30.50
2018-08-19T11:23:46.177Z,30.50
2018-08-19T11:26:15.529Z,30.40
2018-08-19T11:28:48.380Z,30.50
2018-08-19T11:31:27.582Z,30.50
2018-08-19T11:33:59.647Z,30.60
2018-08-19T11:36:35.730Z,30.80
2018-08-19T11:39:14.701Z,31.00
2018-08-19T11:41:43.935Z,31.40
2018-08-19T11:44:15.549Z,31.50
2018-08-19T11:46:44.804Z,31.40
2018-08-19T11:49:15.467Z,31.50
2018-08-19T11:51:51.241Z,31.60
2018-08-19T11:54:21.709Z,31.50
2018-08-19T11:56:57.752Z,31.10
2018-08-19T11:59:32.412Z,30.90
2018-08-19T12:02:01.942Z,30.80
2018-08-19T12:04:31.262Z,30.90
2018-08-19T12:07:00.513Z,30.50
2018-08-19T12:09:29.890Z,30.20
2018-08-19T12:11:59.182Z,30.00
2018-08-19T12:14:28.602Z,29.90
2018-08-19T12:16:59.225Z,29.90
2018-08-19T12:19:29.618Z,30.20
2018-08-19T12:22:02.830Z,30.50
2018-08-19T12:24:42.074Z,30.70
2018-08-19T12:27:12.736Z,30.60
2018-08-19T12:29:42.882Z,30.80
2018-08-19T12:32:21.979Z,30.60
2018-08-19T12:34:54.419Z,30.50
2018-08-19T12:37:24.980Z,30.50
2018-08-19T12:39:54.817Z,30.30
2018-08-19T12:42:24.493Z,30.50
2018-08-19T12:45:13.533Z,30.50
2018-08-19T12:47:42.777Z,30.60
2018-08-19T12:50:15.111Z,30.80
2018-08-19T12:52:44.460Z,31.00
2018-08-19T12:55:16.249Z,31.20
2018-08-19T12:57:46.069Z,31.10
2018-08-19T13:00:25.483Z,31.20
2018-08-19T13:02:55.033Z,31.30
2018-08-19T13:05:24.575Z,31.40
2018-08-19T13:07:53.920Z,31.50
2018-08-19T13:10:23.637Z,31.70
2018-08-19T13:12:55.152Z,31.70
2018-08-19T13:15:26.443Z,31.60
2018-08-19T13:17:55.792Z,31.40
2018-08-19T13:20:25.054Z,31.10
2018-08-19T13:22:59.768Z,31.20
2018-08-19T13:25:29.440Z,31.00
2018-08-19T13:27:58.957Z,30.80
2018-08-19T13:30:28.289Z,30.70
2018-08-19T13:32:57.554Z,30.70
2018-08-19T13:35:26.942Z,30.50
2018-08-19T13:37:56.265Z,30.70
2018-08-19T13:40:25.535Z,31.00
2018-08-19T13:42:54.758Z,30.90
2018-08-19T13:45:26.681Z,30.80
2018-08-19T13:47:55.853Z,30.80
2018-08-19T13:50:25.153Z,30.80
2018-08-19T13:52:54.413Z,30.80
2018-08-19T13:55:23.685Z,31.00
2018-08-19T13:57:52.902Z,30.90
2018-08-19T14:00:23.918Z,31.00
2018-08-19T14:02:53.340Z,31.10
2018-08-19T14:05:22.589Z,31.30
2018-08-19T14:07:51.858Z,31.40
2018-08-19T14:10:21.094Z,31.50
2018-08-19T14:12:50.353Z,31.20
2018-08-19T14:15:19.593Z,31.10
2018-08-19T14:17:48.921Z,31.00
2018-08-19T14:20:18.214Z,30.80
2018-08-19T14:22:47.468Z,30.70
2018-08-19T14:25:16.713Z,30.70
2018-08-19T14:27:45.942Z,30.80
2018-08-19T14:30:15.358Z,30.70
2018-08-19T14:32:45.743Z,30.80
2018-08-19T14:35:15.012Z,30.90
2018-08-19T14:37:44.309Z,30.90
2018-08-19T14:40:17.776Z,30.90
2018-08-19T14:42:47.396Z,31.10
2018-08-19T14:45:16.709Z,31.00
2018-08-19T14:47:45.980Z,30.90
2018-08-19T14:50:17.634Z,30.90
2018-08-19T14:52:46.916Z,31.00
2018-08-19T14:55:16.134Z,31.10
2018-08-19T14:57:45.435Z,31.10
2018-08-19T15:00:16.440Z,31.00
2018-08-19T15:02:45.776Z,31.00
2018-08-19T15:05:19.373Z,30.90
2018-08-19T15:07:49.185Z,30.80
2018-08-19T15:10:22.071Z,30.90
2018-08-19T15:12:51.369Z,30.80
2018-08-19T15:15:20.714Z,30.80
2018-08-19T15:17:55.294Z,30.80
2018-08-19T15:20:29.838Z,30.80
2018-08-19T15:23:14.653Z,30.90
2018-08-19T15:25:44.226Z,30.70
2018-08-19T15:28:13.482Z,30.80
2018-08-19T15:30:43.046Z,30.80
2018-08-19T15:33:13.447Z,30.70
2018-08-19T15:35:43.153Z,30.70
2018-08-19T15:38:13.043Z,30.90
2018-08-19T15:40:47.066Z,30.90
2018-08-19T15:43:16.347Z,30.90
2018-08-19T15:45:45.973Z,30.80
2018-08-19T15:48:15.254Z,30.90
2018-08-19T15:50:44.506Z,31.00
2018-08-19T15:53:13.770Z,31.00
2018-08-19T15:55:43.025Z,30.90
2018-08-19T15:58:12.268Z,30.80
2018-08-19T16:00:42.472Z,30.80
2018-08-19T16:03:12.930Z,30.70
2018-08-19T16:05:42.164Z,30.70
2018-08-19T16:08:11.754Z,30.60
2018-08-19T16:10:43.228Z,30.60
2018-08-19T16:13:12.899Z,30.70
2018-08-19T16:15:42.190Z,30.60
2018-08-19T16:18:11.977Z,30.60
2018-08-19T16:20:44.189Z,30.60
2018-08-19T16:23:13.460Z,30.30
2018-08-19T16:25:42.717Z,30.30
2018-08-19T16:28:11.970Z,30.30
2018-08-19T16:30:41.216Z,30.30
2018-08-19T16:33:10.474Z,30.10
2018-08-19T16:35:39.741Z,30.10
2018-08-19T16:38:09.074Z,30.10
2018-08-19T16:40:38.447Z,30.20
2018-08-19T16:43:07.713Z,30.20
2018-08-19T16:45:36.986Z,30.20
2018-08-19T16:48:06.695Z,30.20
2018-08-19T16:50:36.104Z,30.20
2018-08-19T16:53:06.357Z,30.30
2018-08-19T16:55:35.705Z,30.60
2018-08-19T16:58:05.065Z,30.90
2018-08-19T17:00:34.377Z,31.00
2018-08-19T17:03:26.768Z,30.70
2018-08-19T17:05:56.669Z,30.30
2018-08-19T17:08:25.950Z,30.10
2018-08-19T17:10:55.431Z,29.90
2018-08-19T17:13:25.290Z,29.80
2018-08-19T17:15:54.797Z,29.70
2018-08-19T17:18:24.252Z,29.60
2018-08-19T17:20:53.708Z,29.50
2018-08-19T17:23:24.215Z,29.50
2018-08-19T17:25:53.557Z,29.50
2018-08-19T17:28:24.267Z,29.40
2018-08-19T17:30:55.178Z,29.40
2018-08-19T17:33:27.258Z,29.30
2018-08-19T17:35:56.724Z,29.30
2018-08-19T17:38:31.301Z,29.20
2018-08-19T17:41:01.182Z,29.20
2018-08-19T17:43:34.672Z,29.10
2018-08-19T17:46:10.572Z,29.10
2018-08-19T17:48:40.977Z,29.00
2018-08-19T17:51:27.269Z,29.00
2018-08-19T17:53:56.569Z,29.00
2018-08-19T17:56:25.922Z,28.90
2018-08-19T17:58:55.219Z,28.80
2018-08-19T18:01:24.527Z,28.80
2018-08-19T18:03:53.978Z,28.70
2018-08-19T18:06:23.254Z,28.60
2018-08-19T18:08:53.289Z,28.50
2018-08-19T18:11:22.784Z,28.50
2018-08-19T18:13:52.033Z,28.40
2018-08-19T18:16:21.231Z,28.40
2018-08-19T18:18:50.456Z,28.30
2018-08-19T18:21:19.677Z,28.20
2018-08-19T18:23:49.815Z,28.20
2018-08-19T18:26:19.053Z,28.10
2018-08-19T18:28:48.884Z,28.00
2018-08-19T18:31:22.820Z,27.90
2018-08-19T18:33:59.239Z,27.80
2018-08-19T18:36:30.258Z,27.80
2018-08-19T18:38:59.939Z,27.80
2018-08-19T18:41:35.225Z,27.70
2018-08-19T18:44:06.093Z,27.70
2018-08-19T18:46:41.867Z,27.70
2018-08-19T18:49:12.929Z,27.70
2018-08-19T18:51:49.572Z,27.60
2018-08-19T18:54:32.516Z,27.50
2018-08-19T18:57:07.818Z,27.50
2018-08-19T18:59:41.509Z,27.40
2018-08-19T19:02:10.719Z,27.30
2018-08-19T19:04:40.363Z,27.30
2018-08-19T19:07:09.752Z,27.20
2018-08-19T19:09:44.245Z,27.20
2018-08-19T19:12:13.470Z,27.20
2018-08-19T19:14:42.830Z,27.10
2018-08-19T19:17:12.153Z,27.00
2018-08-19T19:19:49.981Z,27.00
2018-08-19T19:22:19.196Z,26.80
2018-08-19T19:24:51.840Z,26.70
2018-08-19T19:27:21.061Z,26.70
2018-08-19T19:29:55.679Z,26.60
2018-08-19T19:32:25.733Z,26.50
2018-08-19T19:34:54.971Z,26.50
2018-08-19T19:37:24.282Z,26.40
2018-08-19T19:40:00.719Z,26.30
2018-08-19T19:42:29.987Z,26.30
2018-08-19T19:44:59.414Z,26.20
2018-08-19T19:47:28.704Z,26.20
2018-08-19T19:49:58.988Z,26.10
2018-08-19T19:52:28.787Z,26.00
2018-08-19T19:54:58.417Z,25.90
2018-08-19T19:57:27.658Z,25.90
2018-08-19T19:59:56.952Z,25.80
2018-08-19T20:02:29.633Z,25.60
2018-08-19T20:04:59.273Z,25.40
2018-08-19T20:07:28.973Z,25.30
2018-08-19T20:09:58.400Z,25.10
2018-08-19T20:12:27.692Z,25.10
2018-08-19T20:14:57.978Z,25.00
2018-08-19T20:17:27.243Z,25.00
2018-08-19T20:19:56.528Z,25.00
2018-08-19T20:22:25.803Z,24.90
2018-08-19T20:24:55.038Z,24.90
2018-08-19T20:27:24.297Z,24.80
2018-08-19T20:29:54.748Z,24.80
2018-08-19T20:32:24.027Z,24.80
2018-08-19T20:34:53.276Z,24.80
2018-08-19T20:37:24.309Z,24.80
2018-08-19T20:39:54.144Z,24.80
2018-08-19T20:42:23.456Z,24.70
2018-08-19T20:44:52.721Z,24.70
2018-08-19T20:47:21.920Z,24.70
2018-08-19T20:49:51.411Z,24.60
2018-08-19T20:52:56.317Z,24.60
2018-08-19T20:55:26.013Z,24.60
2018-08-19T20:57:55.258Z,24.50
2018-08-19T21:00:24.574Z,24.30
2018-08-19T21:02:53.806Z,24.20
2018-08-19T21:05:23.047Z,24.10
2018-08-19T21:07:54.877Z,24.00
2018-08-19T21:10:24.114Z,23.90
2018-08-19T21:12:53.308Z,23.80
2018-08-19T21:15:26.917Z,23.80
2018-08-19T21:17:57.171Z,23.60
2018-08-19T21:20:26.479Z,23.60
2018-08-19T21:22:55.814Z,23.60
2018-08-19T21:25:25.880Z,23.60
2018-08-19T21:27:55.317Z,23.60
2018-08-19T21:30:26.747Z,23.40
2018-08-19T21:32:56.923Z,23.40
2018-08-19T21:35:26.486Z,23.40
2018-08-19T21:37:55.733Z,23.20
2018-08-19T21:40:42.716Z,23.10
2018-08-19T21:43:18.174Z,23.20
2018-08-19T21:45:48.613Z,23.10
2018-08-19T21:48:17.849Z,23.10
2018-08-19T21:50:47.117Z,23.10
2018-08-19T21:53:17.738Z,23.00
2018-08-19T21:55:48.314Z,23.10
2018-08-19T21:58:17.561Z,23.10
2018-08-19T22:00:59.106Z,23.20
2018-08-19T22:03:34.127Z,23.00
2018-08-19T22:06:08.356Z,23.00
2018-08-19T22:08:41.294Z,22.80
2018-08-19T22:11:10.777Z,22.80
2018-08-19T22:13:39.997Z,22.90
2018-08-19T22:16:09.275Z,22.70
2018-08-19T22:18:38.499Z,22.80
2018-08-19T22:21:22.187Z,22.70
2018-08-19T22:23:54.958Z,22.60
2018-08-19T22:26:24.221Z,22.60
2018-08-19T22:29:19.733Z,22.70
2018-08-19T22:31:51.793Z,22.70
2018-08-19T22:34:21.064Z,22.60
2018-08-19T22:36:50.286Z,22.40
2018-08-19T22:39:20.427Z,22.30
2018-08-19T22:41:51.336Z,22.10
2018-08-19T22:44:20.551Z,22.00
2018-08-19T22:46:49.816Z,22.00
2018-08-19T22:49:19.024Z,22.10
2018-08-19T22:51:48.297Z,22.00
2018-08-19T22:54:17.585Z,22.00
2018-08-19T22:56:46.824Z,22.00
2018-08-19T22:59:16.050Z,22.00
2018-08-19T23:01:48.786Z,22.10
2018-08-19T23:04:18.079Z,22.00
2018-08-19T23:06:47.346Z,22.00
2018-08-19T23:09:16.543Z,21.90
2018-08-19T23:11:46.648Z,22.00
2018-08-19T23:14:32.811Z,21.80
2018-08-19T23:17:02.149Z,21.70
2018-08-19T23:19:31.376Z,21.70
2018-08-19T23:22:00.661Z,21.60
2018-08-19T23:24:29.956Z,21.60
2018-08-19T23:26:59.219Z,21.50
2018-08-19T23:29:28.435Z,21.50
2018-08-19T23:31:57.702Z,21.40
2018-08-19T23:34:27.213Z,21.30
2018-08-19T23:36:56.554Z,21.20
2018-08-19T23:39:25.790Z,21.20
2018-08-19T23:41:55.027Z,21.10
2018-08-19T23:44:24.264Z,21.10
2018-08-19T23:46:53.505Z,21.10
2018-08-19T23:49:22.717Z,21.00
2018-08-19T23:51:51.935Z,20.90
2018-08-19T23:54:21.148Z,20.90
2018-08-19T23:56:50.479Z,20.90
2018-08-19T23:59:26.707Z,20.80
